Terminal Aerodrome Forecast
Issued by NWS

Current Version | Previous Version | Text Only | Print | Product List | Glossary On
Versions: 1 2 3 4 5 6 7 8 9 10 11 12 13 14 15
151
FTUS46 KSEW 261120
TAFBFI
TAF
KBFI 261120Z 2612/2712 15008KT P6SM SCT025 BKN040
      TEMPO 2612/2614 OVC025
     FM261400 16010KT P6SM OVC025
     FM262000 17012G20KT P6SM SCT030 BKN045
     FM270000 19012G20KT P6SM VCSH BKN045
     FM270300 34008KT P6SM -SHRA BKN030 OVC040
     FM270700 16010KT P6SM VCSH OVC035=

USA.gov is the U.S. government's official web portal to all federal, state and local government web resources and services.